Time;durP1;ratioP1;P1;durP2;ratioP2;P2;SDS_P1;SDS_P2;PMS_P1;PMS_P2;Temp;Humidity;BMP_temperature;BMP_pressure;BME280_temperature;BME280_humidity;BME280_pressure;Samples;Min_cycle;Max_cycle;Signal;HPM_P1;HPM_P2
2022/04/11 00:00:16;;;;;;;0.70;0.10;;;22.00;41.00;;;;;;5092723;28;20077;-59
2022/04/11 00:02:43;;;;;;;0.20;0.20;;;22.00;41.00;;;;;;5098025;28;20044;-60
2022/04/11 00:05:10;;;;;;;0.30;0.13;;;22.00;41.00;;;;;;5102862;28;20042;-60
2022/04/11 00:07:37;;;;;;;0.10;0.10;;;22.00;41.00;;;;;;5104190;28;20323;-60
2022/04/11 00:10:05;;;;;;;6.13;0.13;;;21.90;41.00;;;;;;5095104;28;20595;-60
2022/04/11 00:12:35;;;;;;;0.35;0.10;;;22.00;41.30;;;;;;5095842;28;20036;-58
2022/04/11 00:15:06;;;;;;;1.75;0.10;;;22.00;41.50;;;;;;5099801;28;20044;-60
2022/04/11 00:17:33;;;;;;;1.27;0.10;;;22.00;41.70;;;;;;5098097;28;20433;-59
2022/04/11 00:20:00;;;;;;;2.65;0.10;;;22.00;41.80;;;;;;5107052;28;20047;-60
2022/04/11 00:22:28;;;;;;;0.25;0.25;;;22.00;41.90;;;;;;5101098;28;20093;-60
2022/04/11 00:24:55;;;;;;;0.13;0.13;;;22.00;42.00;;;;;;5100870;28;20048;-59
2022/04/11 00:27:22;;;;;;;1.27;0.10;;;21.90;42.00;;;;;;5100979;28;20027;-60
2022/04/11 00:29:49;;;;;;;0.88;0.10;;;22.00;42.20;;;;;;5089691;28;20071;-59
2022/04/11 00:32:18;;;;;;;6.75;0.30;;;22.00;42.20;;;;;;5100715;28;20571;-59
2022/04/11 00:34:45;;;;;;;3.20;0.10;;;22.00;42.30;;;;;;5092264;28;20047;-60
2022/04/11 00:37:12;;;;;;;1.13;0.10;;;22.00;42.30;;;;;;5086677;28;20695;-60
2022/04/11 00:39:39;;;;;;;0.45;0.10;;;21.90;42.30;;;;;;5101177;28;20047;-60
2022/04/11 00:42:10;;;;;;;0.40;0.10;;;21.90;42.30;;;;;;5098763;28;20044;-60
2022/04/11 00:44:38;;;;;;;1.23;0.15;;;21.90;42.30;;;;;;5100463;28;20032;-60
2022/04/11 00:47:05;;;;;;;0.20;0.20;;;21.90;42.30;;;;;;5100263;28;20064;-58
2022/04/11 00:49:34;;;;;;;1.30;0.40;;;21.90;42.40;;;;;;5106907;28;20567;-59
2022/04/11 00:52:01;;;;;;;0.40;0.10;;;21.90;42.40;;;;;;5092710;28;20040;-59
2022/04/11 00:54:30;;;;;;;2.13;0.30;;;21.90;42.40;;;;;;5104954;28;20059;-59
2022/04/11 00:56:58;;;;;;;0.93;0.10;;;21.90;42.50;;;;;;5094664;28;20039;-59
2022/04/11 00:59:25;;;;;;;0.82;0.63;;;21.90;42.40;;;;;;5105526;28;20075;-59
2022/04/11 01:01:53;;;;;;;2.20;0.10;;;21.90;42.50;;;;;;5096970;28;20039;-60
2022/04/11 01:04:27;;;;;;;0.60;0.10;;;21.90;42.50;;;;;;5074376;28;20385;-59
2022/04/11 01:06:56;;;;;;;1.85;0.20;;;21.90;42.50;;;;;;5077013;28;20490;-59
2022/04/11 01:09:24;;;;;;;5.20;0.10;;;21.90;42.60;;;;;;5101147;28;20058;-59
2022/04/11 01:11:52;;;;;;;1.08;0.30;;;21.90;42.60;;;;;;5090879;28;20049;-60
2022/04/11 01:14:19;;;;;;;6.15;0.10;;;21.90;42.60;;;;;;5073983;28;20441;-59
2022/04/11 01:16:50;;;;;;;2.35;0.70;;;22.00;42.70;;;;;;5093042;28;20104;-60
2022/04/11 01:19:18;;;;;;;1.17;0.10;;;22.00;42.80;;;;;;5091975;28;20698;-59
2022/04/11 01:21:46;;;;;;;0.38;0.10;;;21.90;42.80;;;;;;5091999;28;20050;-58
2022/04/11 01:24:14;;;;;;;2.38;0.10;;;22.00;42.90;;;;;;5106584;28;20040;-57
2022/04/11 01:26:42;;;;;;;1.95;0.10;;;22.00;42.90;;;;;;5070744;28;20093;-58
2022/04/11 01:29:12;;;;;;;0.25;0.10;;;22.00;43.00;;;;;;5089250;27;20060;-59
2022/04/11 01:31:40;;;;;;;1.55;0.10;;;22.00;43.00;;;;;;5091597;28;20044;-58
2022/04/11 01:34:07;;;;;;;0.13;0.10;;;22.00;43.00;;;;;;5090399;28;20040;-60
2022/04/11 01:36:34;;;;;;;0.20;0.10;;;22.00;43.00;;;;;;5094338;28;20044;-60
2022/04/11 01:39:04;;;;;;;0.10;0.10;;;22.00;43.00;;;;;;5089675;28;20039;-60
2022/04/11 01:41:31;;;;;;;0.77;0.10;;;22.00;43.10;;;;;;5086115;28;20055;-59
2022/04/11 01:43:58;;;;;;;0.52;0.52;;;21.90;43.00;;;;;;5086997;28;20135;-60
2022/04/11 01:46:25;;;;;;;0.10;0.10;;;22.00;43.20;;;;;;5073543;28;20113;-59
2022/04/11 01:48:56;;;;;;;0.77;0.20;;;21.90;43.10;;;;;;5091170;28;20051;-59
2022/04/11 01:51:23;;;;;;;0.30;0.17;;;21.90;43.20;;;;;;5090120;28;20830;-60
2022/04/11 01:53:50;;;;;;;0.22;0.22;;;21.90;43.20;;;;;;5100698;28;20035;-60
2022/04/11 01:56:19;;;;;;;1.58;0.30;;;22.00;43.30;;;;;;5083933;28;20518;-59
2022/04/11 01:58:47;;;;;;;0.10;0.05;;;22.00;43.40;;;;;;5071695;28;20117;-58
2022/04/11 02:01:17;;;;;;;0.35;0.10;;;21.90;43.30;;;;;;5089363;28;20154;-59
2022/04/11 02:03:45;;;;;;;1.33;0.10;;;22.00;43.40;;;;;;5089548;28;20052;-59
2022/04/11 02:06:12;;;;;;;0.15;0.10;;;22.00;43.50;;;;;;5089710;28;20028;-58
2022/04/11 02:08:39;;;;;;;1.98;0.10;;;22.00;43.50;;;;;;5090793;28;20088;-59
2022/04/11 02:11:11;;;;;;;2.72;0.28;;;21.90;43.40;;;;;;5069911;28;20386;-59
2022/04/11 02:13:41;;;;;;;0.30;0.22;;;22.00;43.50;;;;;;5089307;28;20107;-59
2022/04/11 02:16:08;;;;;;;1.83;0.10;;;22.00;43.50;;;;;;5089529;28;20044;-59
2022/04/11 02:18:35;;;;;;;0.15;0.03;;;22.00;43.50;;;;;;5077098;28;20046;-59
2022/04/11 02:21:02;;;;;;;0.10;0.10;;;22.00;43.50;;;;;;5090928;28;20565;-59
2022/04/11 02:23:30;;;;;;;0.73;0.32;;;22.00;43.50;;;;;;5101015;28;20043;-58
2022/04/11 02:25:57;;;;;;;0.00;0.00;;;22.00;43.50;;;;;;5088436;28;20456;-59
2022/04/11 02:28:25;;;;;;;0.15;0.00;;;22.00;43.60;;;;;;5090790;28;20144;-61
2022/04/11 02:30:54;;;;;;;0.73;0.00;;;22.00;43.60;;;;;;5089488;28;20040;-61
2022/04/11 02:33:21;;;;;;;1.45;0.08;;;22.00;43.60;;;;;;5089505;28;20090;-60
2022/04/11 02:35:49;;;;;;;0.10;0.10;;;22.00;43.60;;;;;;5093116;28;20036;-59
2022/04/11 02:38:17;;;;;;;0.20;0.00;;;22.00;43.70;;;;;;5088932;28;20072;-58
2022/04/11 02:40:46;;;;;;;0.10;0.10;;;22.00;43.70;;;;;;5094473;28;20083;-58
2022/04/11 02:43:19;;;;;;;2.38;0.03;;;22.00;43.70;;;;;;5080480;27;20149;-59
2022/04/11 02:46:06;;;;;;;;;;;22.00;43.70;;;;;;5075700;28;20512;-60
2022/04/11 02:48:38;;;;;;;0.80;0.10;;;22.00;43.70;;;;;;5092946;28;19920;-60
2022/04/11 02:51:31;;;;;;;4.82;0.10;;;21.90;43.80;;;;;;5096222;28;20105;-59
2022/04/11 02:54:08;;;;;;;0.15;0.10;;;22.00;43.90;;;;;;5099848;28;20047;-60
2022/04/11 02:56:39;;;;;;;0.03;0.03;;;22.00;43.90;;;;;;5102102;28;20035;-60
2022/04/11 02:59:07;;;;;;;0.57;0.00;;;22.00;43.90;;;;;;5068901;28;20043;-58
2022/04/11 03:01:36;;;;;;;1.08;0.10;;;22.00;43.90;;;;;;5088401;28;20079;-57
2022/04/11 03:04:07;;;;;;;0.90;0.10;;;22.00;43.90;;;;;;5088754;28;20062;-57
2022/04/11 03:06:51;;;;;;;1.45;0.10;;;22.00;43.90;;;;;;5088253;28;20047;-55
2022/04/11 03:09:19;;;;;;;0.25;0.25;;;22.00;43.90;;;;;;5093935;28;20039;-58
2022/04/11 03:11:46;;;;;;;2.50;0.10;;;22.10;44.00;;;;;;5104293;28;20034;-55
2022/04/11 03:14:14;;;;;;;0.65;0.63;;;22.00;44.00;;;;;;5069394;28;20079;-57
2022/04/11 03:16:43;;;;;;;2.58;0.10;;;22.00;43.90;;;;;;5081340;28;20044;-58
2022/04/11 03:19:11;;;;;;;0.30;0.00;;;22.00;43.90;;;;;;5085391;28;20051;-59
2022/04/11 03:21:38;;;;;;;0.10;0.08;;;22.00;43.90;;;;;;5077323;28;20079;-59
2022/04/11 03:24:10;;;;;;;0.10;0.00;;;22.10;43.80;;;;;;5088873;28;20689;-58
2022/04/11 03:26:38;;;;;;;0.10;0.03;;;22.00;43.70;;;;;;5088489;28;20050;-58
2022/04/11 03:29:09;;;;;;;1.40;0.28;;;22.00;43.70;;;;;;5086932;28;20123;-59
2022/04/11 03:31:37;;;;;;;0.10;0.00;;;22.00;43.70;;;;;;5089986;28;20036;-61
2022/04/11 03:34:06;;;;;;;0.13;0.00;;;22.10;43.70;;;;;;5088285;28;20052;-61
2022/04/11 03:36:33;;;;;;;1.02;0.10;;;22.00;43.60;;;;;;5087328;28;20119;-61
2022/04/11 03:39:00;;;;;;;0.52;0.03;;;22.10;43.60;;;;;;5088899;28;20577;-59
2022/04/11 03:41:31;;;;;;;0.20;0.20;;;22.10;43.60;;;;;;5067709;28;20044;-59
2022/04/11 03:44:10;;;;;;;0.10;0.10;;;22.00;43.60;;;;;;5084838;28;20143;-57
2022/04/11 03:46:37;;;;;;;1.75;0.00;;;22.00;43.60;;;;;;5079102;28;20461;-52
2022/04/11 03:49:06;;;;;;;0.30;0.30;;;22.00;43.50;;;;;;5087242;28;20185;-53
2022/04/11 03:51:34;;;;;;;0.17;0.10;;;22.00;43.50;;;;;;5078256;28;20036;-49
2022/04/11 03:54:02;;;;;;;0.05;0.00;;;22.00;43.50;;;;;;5098907;28;20043;-51
2022/04/11 03:56:29;;;;;;;0.60;0.10;;;22.00;43.40;;;;;;5083936;28;20054;-53
2022/04/11 03:58:59;;;;;;;1.65;0.10;;;22.00;43.40;;;;;;5084659;28;20591;-53
2022/04/11 04:01:26;;;;;;;1.00;0.00;;;22.10;43.40;;;;;;5070789;28;20058;-51
2022/04/11 04:03:53;;;;;;;0.55;0.10;;;22.10;43.30;;;;;;5088716;28;20577;-54
2022/04/11 04:06:22;;;;;;;1.23;0.00;;;22.10;43.30;;;;;;5098080;28;20501;-52
2022/04/11 04:08:49;;;;;;;1.23;0.38;;;22.00;43.20;;;;;;5089462;28;20062;-51
2022/04/11 04:11:26;;;;;;;0.35;0.05;;;22.00;43.20;;;;;;5070427;28;20047;-51
2022/04/11 04:14:02;;;;;;;1.10;0.05;;;22.00;43.10;;;;;;5084197;28;20833;-48
2022/04/11 04:16:31;;;;;;;1.65;0.00;;;22.00;43.10;;;;;;5092696;28;20052;-50
2022/04/11 04:19:04;;;;;;;0.10;0.10;;;22.00;43.10;;;;;;5071006;28;20075;-48
2022/04/11 04:21:32;;;;;;;0.10;0.10;;;22.00;43.10;;;;;;5089084;28;20040;-47
2022/04/11 04:24:00;;;;;;;0.00;0.00;;;22.00;43.10;;;;;;5101467;28;20467;-52
2022/04/11 04:26:29;;;;;;;0.15;0.00;;;22.00;43.00;;;;;;5091111;28;20059;-49
2022/04/11 04:28:56;;;;;;;0.08;0.08;;;22.00;43.00;;;;;;5072047;28;20499;-49
2022/04/11 04:31:27;;;;;;;0.00;0.00;;;22.00;43.00;;;;;;5092076;28;20048;-49
2022/04/11 04:33:54;;;;;;;0.10;0.10;;;22.00;42.90;;;;;;5091119;28;20068;-51
2022/04/11 04:36:22;;;;;;;0.30;0.10;;;21.90;42.80;;;;;;5091928;28;20380;-52
2022/04/11 04:38:51;;;;;;;2.95;0.10;;;22.00;42.80;;;;;;5073811;28;20090;-48
2022/04/11 04:41:18;;;;;;;0.10;0.00;;;22.00;42.80;;;;;;5089039;28;20763;-54
2022/04/11 04:43:45;;;;;;;0.10;0.10;;;21.90;42.70;;;;;;5091766;28;20085;-50
2022/04/11 04:46:12;;;;;;;0.08;0.00;;;22.00;42.70;;;;;;5091307;28;20427;-50
2022/04/11 04:49:04;;;;;;;0.68;0.00;;;21.90;42.60;;;;;;5092116;28;20062;-52
2022/04/11 04:51:31;;;;;;;0.47;0.00;;;21.90;42.70;;;;;;5097604;28;20490;-51
2022/04/11 04:54:04;;;;;;;0.00;0.00;;;21.90;42.60;;;;;;5091831;28;20042;-52
2022/04/11 04:56:35;;;;;;;0.10;0.10;;;21.90;42.60;;;;;;5089922;28;20051;-54
2022/04/11 04:59:07;;;;;;;0.05;0.05;;;22.00;42.70;;;;;;5100735;28;20158;-54
2022/04/11 05:01:37;;;;;;;0.25;0.10;;;21.90;42.60;;;;;;5103324;28;20112;-52
2022/04/11 05:04:05;;;;;;;1.48;0.05;;;21.90;42.60;;;;;;5101680;28;20043;-49
2022/04/11 05:06:35;;;;;;;0.80;0.30;;;21.90;42.60;;;;;;5095583;27;20051;-51
2022/04/11 05:09:06;;;;;;;0.38;0.10;;;21.90;42.60;;;;;;5098958;27;20132;-53
2022/04/11 05:11:33;;;;;;;0.00;0.00;;;21.90;42.50;;;;;;5110660;27;20059;-49
2022/04/11 05:14:00;;;;;;;0.10;0.00;;;21.90;42.50;;;;;;5075495;28;20793;-49
2022/04/11 05:16:30;;;;;;;0.00;0.00;;;21.90;42.50;;;;;;5091824;27;20047;-50
2022/04/11 05:18:57;;;;;;;0.00;0.00;;;21.90;42.40;;;;;;5097531;27;20043;-52
2022/04/11 05:21:25;;;;;;;0.10;0.10;;;21.80;42.40;;;;;;5092140;28;20154;-52
2022/04/11 05:23:52;;;;;;;0.22;0.03;;;21.80;42.40;;;;;;5086795;28;20522;-49
2022/04/11 05:26:20;;;;;;;0.05;0.00;;;21.90;42.40;;;;;;5084705;27;20141;-50
2022/04/11 05:28:48;;;;;;;0.50;0.10;;;21.80;42.30;;;;;;5087313;28;20116;-53
2022/04/11 05:31:16;;;;;;;0.20;0.10;;;21.90;42.40;;;;;;5094194;28;20124;-51
2022/04/11 05:33:44;;;;;;;0.47;0.10;;;21.80;42.30;;;;;;5081402;28;20121;-51
2022/04/11 05:36:16;;;;;;;2.92;0.10;;;21.90;42.40;;;;;;5078028;28;20032;-52
2022/04/11 05:38:43;;;;;;;0.85;0.00;;;21.80;42.30;;;;;;5088661;28;20405;-52
2022/04/11 05:41:11;;;;;;;1.35;0.25;;;21.80;42.30;;;;;;5104697;27;20051;-50
2022/04/11 05:43:48;;;;;;;0.25;0.17;;;21.80;42.30;;;;;;5069829;28;20056;-48
2022/04/11 05:46:17;;;;;;;2.00;0.00;;;21.80;42.30;;;;;;5089247;27;20036;-50
2022/04/11 05:48:50;;;;;;;0.10;0.10;;;21.80;42.30;;;;;;5095110;28;20043;-49
2022/04/11 05:51:17;;;;;;;0.13;0.00;;;21.80;42.30;;;;;;5088723;28;20058;-50
2022/04/11 05:53:44;;;;;;;0.17;0.00;;;21.80;42.30;;;;;;5081570;28;20135;-50
2022/04/11 05:56:11;;;;;;;0.55;0.00;;;21.80;42.30;;;;;;5087793;28;20032;-50
2022/04/11 05:58:39;;;;;;;0.10;0.03;;;21.80;42.20;;;;;;5080393;28;20040;-50
2022/04/11 06:01:08;;;;;;;0.00;0.00;;;21.80;42.20;;;;;;5086948;28;20032;-50
2022/04/11 06:03:38;;;;;;;0.55;0.10;;;21.80;42.30;;;;;;5085034;28;20044;-54
2022/04/11 06:06:06;;;;;;;0.05;0.00;;;21.80;42.20;;;;;;5077132;28;20040;-49
2022/04/11 06:08:33;;;;;;;0.10;0.03;;;21.80;42.20;;;;;;5088481;28;20043;-49
2022/04/11 06:11:00;;;;;;;1.55;0.05;;;21.80;42.20;;;;;;5078077;28;20060;-51
2022/04/11 06:13:27;;;;;;;0.40;0.20;;;21.80;42.20;;;;;;5087790;28;20460;-53
2022/04/11 06:15:58;;;;;;;0.22;0.22;;;21.80;42.20;;;;;;5085201;28;20067;-53
2022/04/11 06:18:27;;;;;;;0.43;0.08;;;21.80;42.10;;;;;;5084957;28;20044;-49
2022/04/11 06:20:54;;;;;;;0.75;0.00;;;21.80;42.10;;;;;;5083092;28;20135;-54
2022/04/11 06:23:21;;;;;;;1.38;0.00;;;21.80;42.10;;;;;;5086408;28;20051;-52
2022/04/11 06:25:49;;;;;;;1.75;0.22;;;21.90;42.20;;;;;;5097392;28;20044;-49
2022/04/11 06:28:17;;;;;;;0.30;0.10;;;21.90;42.20;;;;;;5094312;28;20035;-52
2022/04/11 06:30:45;;;;;;;3.03;0.20;;;21.80;42.20;;;;;;5078017;28;20446;-54
2022/04/11 06:33:13;;;;;;;1.55;0.10;;;21.90;42.30;;;;;;5093868;28;20050;-52
2022/04/11 06:35:41;;;;;;;0.03;0.00;;;21.90;42.40;;;;;;5092781;28;20031;-52
2022/04/11 06:38:10;;;;;;;0.65;0.00;;;21.90;42.40;;;;;;5085364;28;20040;-49
2022/04/11 06:40:37;;;;;;;1.85;0.00;;;21.90;42.50;;;;;;5102497;28;20452;-52
2022/04/11 06:43:04;;;;;;;0.70;0.10;;;21.90;42.60;;;;;;5075259;28;20062;-54
2022/04/11 06:45:50;;;;;;;3.42;0.30;;;21.90;42.80;;;;;;5089952;28;20138;-49
2022/04/11 06:48:20;;;;;;;5.20;0.22;;;21.90;43.00;;;;;;5072466;28;20429;-48
2022/04/11 06:50:51;;;;;;;12.02;2.33;;;21.90;43.40;;;;;;5087629;28;20040;-50
2022/04/11 06:53:18;;;;;;;34.05;11.80;;;21.90;44.10;;;;;;5100787;28;20563;-47
2022/04/11 06:55:47;;;;;;;24.80;7.72;;;22.00;45.90;;;;;;5107794;27;20035;-47
2022/04/11 06:58:14;;;;;;;23.40;5.60;;;22.00;46.10;;;;;;5092220;28;20150;-58
2022/04/11 07:00:41;;;;;;;30.25;8.70;;;22.10;46.00;;;;;;5089588;28;20122;-70
2022/04/11 07:03:09;;;;;;;51.33;14.18;;;22.10;46.20;;;;;;5056594;28;20044;-69
2022/04/11 07:05:36;;;;;;;53.00;12.88;;;22.10;47.10;;;;;;5087757;28;20041;-69
2022/04/11 07:08:06;;;;;;;33.25;9.88;;;22.10;47.30;;;;;;5088233;28;20955;-70
2022/04/11 07:10:34;;;;;;;36.08;9.55;;;22.20;47.40;;;;;;5102170;28;20120;-71
2022/04/11 07:13:01;;;;;;;48.65;10.35;;;22.20;47.10;;;;;;5092959;28;20101;-71
2022/04/11 07:15:29;;;;;;;35.42;8.85;;;22.20;47.00;;;;;;5090009;28;20040;-71
2022/04/11 07:17:56;;;;;;;37.60;10.35;;;22.30;46.90;;;;;;5090466;28;20082;-71
2022/04/11 07:20:23;;;;;;;36.67;9.10;;;22.30;46.60;;;;;;5088213;28;20114;-71
2022/04/11 07:22:50;;;;;;;27.38;6.68;;;22.30;46.40;;;;;;5102537;28;20475;-70
2022/04/11 07:25:18;;;;;;;27.23;8.15;;;22.30;46.30;;;;;;5092204;28;20048;-71
2022/04/11 07:27:45;;;;;;;24.88;7.00;;;22.30;46.10;;;;;;5090051;28;20032;-71
2022/04/11 07:30:13;;;;;;;28.65;6.55;;;22.30;46.00;;;;;;5090267;28;20044;-71
2022/04/11 07:32:40;;;;;;;24.70;6.57;;;22.30;45.80;;;;;;5090422;28;20042;-71
2022/04/11 07:35:08;;;;;;;31.67;6.18;;;22.40;45.70;;;;;;5101619;27;20050;-71
2022/04/11 07:37:35;;;;;;;24.38;6.03;;;22.40;45.50;;;;;;5080884;28;20043;-72
2022/04/11 07:40:03;;;;;;;18.17;5.53;;;22.40;45.40;;;;;;5084488;28;20163;-71
2022/04/11 07:42:31;;;;;;;21.90;5.95;;;22.40;45.20;;;;;;5097619;28;20044;-71
2022/04/11 07:44:58;;;;;;;18.88;4.38;;;22.40;45.00;;;;;;5089985;28;20468;-71
2022/04/11 07:47:26;;;;;;;18.52;5.05;;;22.40;44.90;;;;;;5088502;28;20039;-71
2022/04/11 07:49:53;;;;;;;19.60;5.70;;;22.40;44.80;;;;;;5088559;28;20048;-72
2022/04/11 07:52:21;;;;;;;18.55;4.13;;;22.40;44.70;;;;;;5095615;28;20035;-71
2022/04/11 07:54:48;;;;;;;15.95;5.10;;;22.40;44.50;;;;;;5102838;28;20774;-71
2022/04/11 07:57:16;;;;;;;16.75;3.42;;;22.40;44.40;;;;;;5098036;28;20033;-71
2022/04/11 07:59:44;;;;;;;16.10;3.30;;;22.40;44.30;;;;;;5092319;28;20043;-71
2022/04/11 08:02:11;;;;;;;15.10;4.80;;;22.40;44.20;;;;;;5108107;28;20059;-71
2022/04/11 08:04:38;;;;;;;9.25;3.10;;;22.40;44.10;;;;;;5095790;28;20048;-72
2022/04/11 08:07:06;;;;;;;15.00;3.05;;;22.40;44.00;;;;;;5094676;28;20447;-71
2022/04/11 08:09:33;;;;;;;16.02;4.10;;;22.40;43.90;;;;;;5097053;28;20044;-72
2022/04/11 08:12:00;;;;;;;6.55;2.90;;;22.40;43.80;;;;;;5094045;28;20036;-72
2022/04/11 08:14:29;;;;;;;9.88;2.83;;;22.40;43.60;;;;;;5092903;28;20419;-71
2022/04/11 08:17:02;;;;;;;11.10;4.45;;;22.40;43.50;;;;;;5092022;28;20076;-71
2022/04/11 08:19:30;;;;;;;14.20;3.13;;;22.50;43.50;;;;;;5094304;28;20055;-72
2022/04/11 08:21:57;;;;;;;4.55;1.48;;;22.50;43.40;;;;;;5097821;28;20356;-72
2022/04/11 08:24:25;;;;;;;6.50;1.85;;;22.50;43.30;;;;;;5096545;27;20047;-72
2022/04/11 08:26:52;;;;;;;6.55;1.92;;;22.50;43.20;;;;;;5120687;27;20035;-72
2022/04/11 08:29:20;;;;;;;8.75;2.00;;;22.50;43.10;;;;;;5091882;28;20055;-72
2022/04/11 08:31:47;;;;;;;9.10;1.80;;;22.50;42.90;;;;;;5085253;28;20040;-72
2022/04/11 08:34:16;;;;;;;6.45;1.63;;;22.40;42.80;;;;;;5093308;28;20075;-72
2022/04/11 08:36:44;;;;;;;6.05;1.45;;;22.50;42.80;;;;;;5093397;28;20135;-72
2022/04/11 08:39:11;;;;;;;10.20;1.77;;;22.50;42.70;;;;;;5097812;28;20128;-72
2022/04/11 08:41:39;;;;;;;4.50;1.00;;;22.50;42.60;;;;;;5093039;28;20571;-72
2022/04/11 08:44:07;;;;;;;6.05;1.73;;;22.50;42.40;;;;;;5089778;28;20067;-72
2022/04/11 08:46:36;;;;;;;5.28;0.80;;;22.50;42.40;;;;;;5093539;28;20535;-72
2022/04/11 08:49:06;;;;;;;4.32;0.63;;;22.50;42.30;;;;;;5093445;28;20040;-72
2022/04/11 08:51:36;;;;;;;4.28;1.15;;;22.50;42.20;;;;;;5096078;27;20054;-72
2022/04/11 08:54:05;;;;;;;5.28;1.10;;;22.50;42.10;;;;;;5104107;28;20040;-72
2022/04/11 08:56:33;;;;;;;4.53;1.05;;;22.50;42.00;;;;;;5090553;28;20155;-72
2022/04/11 08:59:01;;;;;;;2.50;1.13;;;22.50;42.00;;;;;;5106646;28;20057;-72
2022/04/11 09:01:28;;;;;;;4.72;0.80;;;22.50;41.80;;;;;;5115520;27;20054;-72
2022/04/11 09:03:55;;;;;;;1.55;1.02;;;22.50;41.80;;;;;;5101908;27;20400;-72
2022/04/11 09:06:24;;;;;;;5.68;0.90;;;22.50;41.70;;;;;;5093216;28;20127;-71
2022/04/11 09:08:55;;;;;;;1.55;0.63;;;22.50;41.60;;;;;;5092282;28;20051;-72
2022/04/11 09:11:30;;;;;;;2.95;0.63;;;22.50;41.60;;;;;;5088932;28;20051;-72
2022/04/11 09:14:00;;;;;;;4.32;0.70;;;22.60;41.60;;;;;;5094658;28;20044;-72
2022/04/11 09:16:28;;;;;;;3.03;0.75;;;22.60;41.50;;;;;;5109207;28;20053;-72
2022/04/11 09:18:56;;;;;;;1.13;0.25;;;22.50;41.30;;;;;;5097164;28;20085;-72
2022/04/11 09:21:25;;;;;;;3.78;0.40;;;22.60;41.40;;;;;;5092719;28;20063;-73
2022/04/11 09:24:14;;;;;;;2.90;0.80;;;22.60;41.30;;;;;;5103244;28;20051;-73
2022/04/11 09:26:41;;;;;;;4.05;1.10;;;22.60;41.20;;;;;;5092653;28;20043;-73
2022/04/11 09:29:08;;;;;;;1.60;0.40;;;22.60;41.20;;;;;;5089406;28;20183;-72
2022/04/11 09:31:36;;;;;;;2.97;1.30;;;22.60;41.20;;;;;;5089745;28;20067;-72
2022/04/11 09:34:15;;;;;;;4.03;0.82;;;22.60;41.00;;;;;;5088085;28;20051;-72
2022/04/11 09:36:48;;;;;;;1.25;0.52;;;22.60;40.90;;;;;;5078944;28;20048;-72
2022/04/11 09:39:20;;;;;;;0.70;0.55;;;22.60;40.90;;;;;;5092878;28;20071;-72
2022/04/11 09:41:48;;;;;;;2.55;0.85;;;22.60;40.80;;;;;;5092494;28;20530;-72
2022/04/11 09:44:23;;;;;;;3.78;0.50;;;22.60;40.80;;;;;;5090000;28;20102;-72
2022/04/11 09:46:51;;;;;;;5.28;0.68;;;22.70;40.70;;;;;;5090945;28;20058;-69
2022/04/11 09:49:19;;;;;;;4.60;0.85;;;22.70;40.70;;;;;;5092704;28;20048;-72
2022/04/11 09:52:06;;;;;;;1.17;0.30;;;22.70;40.60;;;;;;5092572;28;20046;-72
2022/04/11 09:54:37;;;;;;;1.02;0.30;;;22.80;40.60;;;;;;5100914;28;20386;-73
2022/04/11 09:57:06;;;;;;;0.90;0.40;;;22.70;40.50;;;;;;5104617;28;20050;-72
2022/04/11 09:59:35;;;;;;;3.78;0.63;;;22.80;40.50;;;;;;5092497;28;20126;-72
2022/04/11 10:02:03;;;;;;;0.80;0.73;;;22.80;40.40;;;;;;5089153;28;20047;-73
2022/04/11 10:04:30;;;;;;;0.47;0.43;;;22.80;40.30;;;;;;5092486;28;20047;-73
2022/04/11 10:06:58;;;;;;;2.15;0.55;;;22.80;40.20;;;;;;5108417;27;20051;-72
2022/04/11 10:09:25;;;;;;;1.75;0.40;;;22.80;40.10;;;;;;5090945;28;20043;-73
2022/04/11 10:11:56;;;;;;;1.80;0.45;;;22.80;40.10;;;;;;5091598;28;20043;-72
2022/04/11 10:14:26;;;;;;;1.38;0.40;;;22.90;40.10;;;;;;5089854;28;20079;-72
2022/04/11 10:16:55;;;;;;;3.35;0.75;;;22.90;40.00;;;;;;5088625;28;20072;-70
2022/04/11 10:19:24;;;;;;;0.98;0.55;;;22.90;40.00;;;;;;5091473;28;20409;-72
2022/04/11 10:21:55;;;;;;;1.00;0.40;;;22.90;39.90;;;;;;5090413;28;20040;-72
2022/04/11 10:24:33;;;;;;;1.50;0.40;;;22.90;39.90;;;;;;5082007;28;20070;-72
2022/04/11 10:29:54;;;;;;;1.17;0.60;;;23.00;39.80;;;;;;5100962;27;20396;-71
2022/04/11 10:32:24;;;;;;;2.20;1.00;;;23.00;39.70;;;;;;5082452;28;20072;-72
2022/04/11 10:34:54;;;;;;;0.60;0.25;;;23.00;39.60;;;;;;5084113;28;20550;-71
2022/04/11 10:37:23;;;;;;;0.88;0.65;;;23.10;39.70;;;;;;5082851;28;20093;-71
2022/04/11 10:39:51;;;;;;;0.60;0.40;;;23.10;39.60;;;;;;5083110;28;20044;-70
2022/04/11 10:42:21;;;;;;;1.17;0.60;;;23.10;39.50;;;;;;5082808;28;20048;-72
2022/04/11 10:44:50;;;;;;;1.63;0.47;;;23.20;39.50;;;;;;5083122;28;20043;-71
2022/04/11 10:47:26;;;;;;;1.50;0.30;;;23.20;39.40;;;;;;5084162;28;20139;-71
2022/04/11 10:50:25;;;;;;;3.38;0.35;;;23.20;39.30;;;;;;5084890;28;20051;-72
2022/04/11 10:53:13;;;;;;;1.50;0.40;;;23.30;39.20;;;;;;5084595;28;20523;-71
2022/04/11 10:56:02;;;;;;;0.82;0.30;;;23.30;39.20;;;;;;5087252;28;20036;-71
2022/04/11 10:58:46;;;;;;;0.98;0.20;;;23.30;39.00;;;;;;5065574;28;20128;-72
2022/04/11 11:01:14;;;;;;;0.55;0.30;;;23.30;38.90;;;;;;5083483;28;20040;-71
2022/04/11 11:03:57;;;;;;;0.43;0.40;;;23.30;38.80;;;;;;5082696;28;20040;-71
2022/04/11 11:06:25;;;;;;;0.30;0.10;;;23.40;38.60;;;;;;5083194;28;20379;-73
2022/04/11 11:08:52;;;;;;;1.20;0.30;;;23.40;38.50;;;;;;5083504;28;20094;-71
2022/04/11 11:11:25;;;;;;;0.82;0.10;;;23.50;38.40;;;;;;5082737;28;20044;-71
2022/04/11 11:13:54;;;;;;;0.93;0.20;;;23.50;38.20;;;;;;5084350;28;20055;-71
2022/04/11 11:16:59;;;;;;;0.85;0.50;;;23.50;38.10;;;;;;5061060;28;20450;-71
2022/04/11 11:19:27;;;;;;;0.88;0.30;;;23.60;38.00;;;;;;5018947;28;20063;-71
2022/04/11 11:22:14;;;;;;;0.75;0.75;;;23.60;38.00;;;;;;5019497;28;20050;-71
2022/04/11 11:25:15;;;;;;;0.60;0.20;;;23.70;37.90;;;;;;5019960;28;20065;-72
2022/04/11 11:27:44;;;;;;;0.20;0.15;;;23.70;37.80;;;;;;5019547;28;20050;-72
2022/04/11 11:30:12;;;;;;;1.20;0.10;;;23.70;37.80;;;;;;5019874;28;20498;-70
2022/04/11 11:32:41;;;;;;;1.77;0.17;;;23.80;37.70;;;;;;5005159;28;20058;-71
2022/04/11 11:35:10;;;;;;;1.52;0.15;;;23.80;37.50;;;;;;5020283;28;20046;-71
2022/04/11 11:37:38;;;;;;;1.17;0.20;;;23.90;37.50;;;;;;5020140;28;20050;-71
2022/04/11 11:40:07;;;;;;;0.68;0.22;;;23.90;37.40;;;;;;5013001;28;20046;-72
2022/04/11 11:42:38;;;;;;;3.38;0.20;;;23.90;37.30;;;;;;4999639;28;20057;-72
2022/04/11 11:45:07;;;;;;;0.17;0.10;;;24.00;37.20;;;;;;5006101;28;20062;-72
2022/04/11 11:47:35;;;;;;;0.70;0.13;;;24.10;37.20;;;;;;4990893;28;20041;-71
2022/04/11 11:50:04;;;;;;;0.40;0.10;;;24.10;37.00;;;;;;5007994;28;20081;-72
2022/04/11 11:52:34;;;;;;;0.55;0.22;;;24.20;37.00;;;;;;5007099;28;20526;-71
2022/04/11 11:55:02;;;;;;;0.20;0.10;;;24.30;37.00;;;;;;5002272;28;20137;-71
2022/04/11 11:57:32;;;;;;;0.20;0.10;;;24.30;36.80;;;;;;5060490;28;20248;-72
2022/04/11 12:00:02;;;;;;;0.10;0.10;;;24.30;36.70;;;;;;5030452;28;20409;-72
2022/04/11 12:05:26;;;;;;;0.13;0.10;;;24.40;36.50;;;;;;5068095;28;20619;-72
2022/04/11 12:08:17;;;;;;;0.20;0.10;;;24.50;36.50;;;;;;5069467;28;20090;-72
2022/04/11 12:10:46;;;;;;;0.38;0.10;;;24.60;36.40;;;;;;5067911;28;20142;-72
2022/04/11 12:13:22;;;;;;;0.50;0.10;;;24.60;36.30;;;;;;5066169;28;20041;-72
2022/04/11 12:15:50;;;;;;;0.28;0.03;;;24.70;36.20;;;;;;5050023;28;20078;-72
2022/04/11 12:18:17;;;;;;;0.43;0.10;;;24.70;36.10;;;;;;5067650;28;20094;-73
2022/04/11 12:20:45;;;;;;;0.20;0.10;;;24.70;36.00;;;;;;5068003;28;20064;-73
2022/04/11 12:23:15;;;;;;;0.30;0.10;;;24.80;36.50;;;;;;5049744;28;20060;-73
2022/04/11 12:25:50;;;;;;;0.17;0.05;;;24.90;35.80;;;;;;5069080;28;20056;-73
2022/04/11 12:28:19;;;;;;;0.28;0.10;;;24.90;35.80;;;;;;5065946;28;20386;-72
2022/04/11 12:30:49;;;;;;;0.05;0.03;;;25.00;35.80;;;;;;5067512;28;20037;-73
2022/04/11 12:33:33;;;;;;;0.30;0.10;;;25.00;35.70;;;;;;5067163;28;20392;-72
2022/04/11 12:36:06;;;;;;;0.10;0.10;;;25.10;35.50;;;;;;5067930;28;20040;-73
2022/04/11 12:38:41;;;;;;;1.10;0.85;;;25.20;35.50;;;;;;5066401;28;20109;-73
2022/04/11 12:41:30;;;;;;;0.10;0.10;;;25.20;35.40;;;;;;5063717;28;20052;-73
2022/04/11 12:44:07;;;;;;;0.05;0.00;;;25.30;35.40;;;;;;5069605;28;20127;-72
2022/04/11 12:46:35;;;;;;;0.13;0.13;;;25.30;35.40;;;;;;5068406;28;20071;-73
2022/04/11 12:49:03;;;;;;;0.28;0.10;;;25.30;35.20;;;;;;5049442;28;20048;-73
2022/04/11 12:51:30;;;;;;;0.63;0.10;;;25.40;35.20;;;;;;5066505;28;20508;-74
2022/04/11 12:54:10;;;;;;;0.40;0.15;;;25.40;35.10;;;;;;5067409;28;20047;-73
2022/04/11 12:56:43;;;;;;;0.10;0.10;;;25.50;35.00;;;;;;5044501;28;20048;-73
2022/04/11 12:59:11;;;;;;;0.10;0.10;;;25.50;35.00;;;;;;5065544;28;20044;-73
2022/04/11 13:02:05;;;;;;;0.25;0.03;;;25.60;35.00;;;;;;5070360;28;20032;-73
2022/04/11 13:04:33;;;;;;;0.10;0.10;;;25.60;35.50;;;;;;5067868;28;20611;-74